createdAt,value
2022-08-10T00:01:45.333Z,39.40
2022-08-10T00:04:21.541Z,39.20
2022-08-10T00:06:49.589Z,39.30
2022-08-10T00:09:16.330Z,39.20
2022-08-10T00:11:43.058Z,39.70
2022-08-10T00:14:09.787Z,39.00
2022-08-10T00:16:36.545Z,39.00
2022-08-10T00:19:03.279Z,39.00
2022-08-10T00:21:30.001Z,38.90
2022-08-10T00:23:56.718Z,38.90
2022-08-10T00:26:23.448Z,38.90
2022-08-10T00:28:50.217Z,38.80
2022-08-10T00:31:17.008Z,38.80
2022-08-10T00:33:43.767Z,38.90
2022-08-10T00:36:10.556Z,38.50
2022-08-10T00:38:37.706Z,38.50
2022-08-10T00:41:04.470Z,38.60
2022-08-10T00:43:31.255Z,38.60
2022-08-10T00:45:58.849Z,38.50
2022-08-10T00:48:28.092Z,38.50
2022-08-10T00:50:55.028Z,38.60
2022-08-10T00:53:21.783Z,38.40
2022-08-10T00:57:12.691Z,38.30
2022-08-10T00:58:36.352Z,38.70
2022-08-10T01:01:03.139Z,38.80
2022-08-10T01:04:58.847Z,38.60
2022-08-10T01:06:26.210Z,38.50
2022-08-10T01:08:59.043Z,37.90
2022-08-10T01:12:39.650Z,37.80
2022-08-10T01:14:25.068Z,38.90
2022-08-10T01:17:00.263Z,37.80
2022-08-10T01:19:45.503Z,37.80
2022-08-10T01:22:23.906Z,37.80
2022-08-10T01:24:50.633Z,37.80
2022-08-10T01:27:27.515Z,38.60
2022-08-10T01:30:03.741Z,37.80
2022-08-10T01:32:49.336Z,37.80
2022-08-10T01:35:16.064Z,38.00
2022-08-10T01:37:51.892Z,38.70
2022-08-10T01:40:22.984Z,39.00
2022-08-10T01:42:49.708Z,38.80
2022-08-10T01:45:17.023Z,38.90
2022-08-10T01:48:02.303Z,38.80
2022-08-10T01:50:30.361Z,37.90
2022-08-10T01:52:58.900Z,42.50
2022-08-10T01:55:25.754Z,45.20
2022-08-10T01:57:52.478Z,46.60
2022-08-10T02:00:19.334Z,47.60
2022-08-10T02:02:46.087Z,48.50
2022-08-10T02:05:12.864Z,49.00
2022-08-10T02:07:42.129Z,49.20
2022-08-10T02:10:10.073Z,49.40
2022-08-10T02:12:36.917Z,49.30
2022-08-10T02:15:07.890Z,49.50
2022-08-10T02:17:57.638Z,47.50
2022-08-10T02:20:27.425Z,46.40
2022-08-10T02:23:00.802Z,46.20
2022-08-10T02:25:40.519Z,45.50
2022-08-10T02:28:12.381Z,44.70
2022-08-10T02:30:54.625Z,43.70
2022-08-10T02:33:25.227Z,43.40
2022-08-10T02:35:55.876Z,43.10
2022-08-10T02:38:59.558Z,42.40
2022-08-10T02:45:14.469Z,47.20
2022-08-10T02:45:21.692Z,49.70
2022-08-10T02:47:10.731Z,50.30
2022-08-10T02:49:42.174Z,51.80
2022-08-10T02:52:14.371Z,52.40
2022-08-10T02:54:44.798Z,52.40
2022-08-10T02:57:27.225Z,52.20
2022-08-10T02:59:54.395Z,51.60
2022-08-10T03:02:29.873Z,51.80
2022-08-10T03:05:12.613Z,49.50
2022-08-10T03:07:45.204Z,48.20
2022-08-10T03:10:17.045Z,48.10
2022-08-10T03:12:43.816Z,46.20
2022-08-10T03:15:15.648Z,46.30
2022-08-10T03:17:43.378Z,45.30
2022-08-10T03:20:38.244Z,45.00
2022-08-10T03:23:18.904Z,44.60
2022-08-10T03:25:53.211Z,43.10
2022-08-10T03:28:28.054Z,43.70
2022-08-10T03:30:54.905Z,42.20
2022-08-10T03:33:22.320Z,44.20
2022-08-10T03:36:41.599Z,48.30
2022-08-10T03:38:36.214Z,50.10
2022-08-10T03:41:03.985Z,51.40
2022-08-10T03:43:30.774Z,52.20
2022-08-10T03:45:59.037Z,53.20
2022-08-10T03:48:32.341Z,53.20
2022-08-10T03:51:13.011Z,53.10
2022-08-10T03:54:06.087Z,53.10
2022-08-10T03:56:28.271Z,52.70
2022-08-10T03:58:57.439Z,51.70
2022-08-10T04:02:42.156Z,50.10
2022-08-10T04:04:12.943Z,49.30
2022-08-10T04:06:42.128Z,48.20
2022-08-10T04:09:09.336Z,52.10
2022-08-10T04:11:37.066Z,53.80
2022-08-10T04:14:07.846Z,54.80
2022-08-10T04:16:54.615Z,55.50
2022-08-10T04:19:21.376Z,54.60
2022-08-10T04:21:50.385Z,54.00
2022-08-10T04:24:27.124Z,53.60
2022-08-10T04:27:00.524Z,53.90
2022-08-10T04:29:27.249Z,51.50
2022-08-10T04:31:54.076Z,50.30
2022-08-10T04:34:20.922Z,49.20
2022-08-10T04:36:48.177Z,48.70
2022-08-10T04:39:14.997Z,47.90
2022-08-10T04:41:46.146Z,47.00
2022-08-10T04:44:14.479Z,46.30
2022-08-10T04:46:42.937Z,45.50
2022-08-10T04:54:38.225Z,45.20
2022-08-10T04:57:05.222Z,52.20
2022-08-10T04:59:31.952Z,53.20
2022-08-10T05:02:30.574Z,54.10
2022-08-10T05:04:45.387Z,54.60
2022-08-10T05:10:01.132Z,55.70
2022-08-10T05:12:30.737Z,55.10
2022-08-10T05:14:57.448Z,54.00
2022-08-10T06:18:19.386Z,52.50
2022-08-10T20:01:02.857Z,55.60
2022-08-10T20:03:38.851Z,52.30
2022-08-10T20:33:57.423Z,51.00
2022-08-10T20:36:31.065Z,46.70
2022-08-10T20:39:12.009Z,47.30
2022-08-10T20:41:48.098Z,46.00
2022-08-10T20:44:27.024Z,45.30
2022-08-10T20:47:01.844Z,45.00
2022-08-10T20:49:38.455Z,44.20
2022-08-10T20:52:05.329Z,44.00
2022-08-10T20:54:36.906Z,44.10
2022-08-10T20:57:03.727Z,43.20
2022-08-10T21:00:04.112Z,43.70
2022-08-10T21:02:50.867Z,42.50
2022-08-10T21:05:36.244Z,42.30
2022-08-10T21:08:26.114Z,42.20
